Time;durP1;ratioP1;P1;durP2;ratioP2;P2;SDS_P1;SDS_P2;PMS_P1;PMS_P2;Temp;Humidity;BMP_temperature;BMP_pressure;BME280_temperature;BME280_humidity;BME280_pressure;Samples;Min_cycle;Max_cycle;Signal;HPM_P1;HPM_P2
2023/11/09 00:00:37;;;;;;;6.00;2.35;;;;;;;;;;5054690;28;20025;-58
2023/11/09 00:03:02;;;;;;;4.28;1.40;;;;;;;;;;5055298;28;20020;-59
2023/11/09 00:05:27;;;;;;;4.93;1.60;;;;;;;;;;5055197;28;20025;-57
2023/11/09 00:07:53;;;;;;;4.03;1.45;;;;;;;;;;5053759;28;20032;-59
2023/11/09 00:10:18;;;;;;;5.05;1.50;;;;;;;;;;5059419;28;20426;-58
2023/11/09 00:12:44;;;;;;;5.57;1.53;;;;;;;;;;5062298;28;20104;-57
2023/11/09 00:15:10;;;;;;;9.20;7.15;;;;;;;;;;5063430;28;20029;-57
2023/11/09 00:17:36;;;;;;;4.80;1.50;;;;;;;;;;5062885;28;20073;-58
2023/11/09 00:20:01;;;;;;;4.88;1.40;;;;;;;;;;5061575;28;20025;-58
2023/11/09 00:22:26;;;;;;;5.47;1.60;;;;;;;;;;5060298;28;20493;-58
2023/11/09 00:24:51;;;;;;;4.37;1.53;;;;;;;;;;5053221;28;20051;-59
2023/11/09 00:27:18;;;;;;;5.57;1.83;;;;;;;;;;5054898;28;20079;-58
2023/11/09 00:29:43;;;;;;;5.47;1.55;;;;;;;;;;5054671;28;20028;-58
2023/11/09 00:32:09;;;;;;;7.73;1.80;;;;;;;;;;5054669;28;20013;-58
2023/11/09 00:34:34;;;;;;;4.88;1.55;;;;;;;;;;5054803;28;20025;-57
2023/11/09 00:37:00;;;;;;;5.80;1.63;;;;;;;;;;5052006;28;20021;-57
2023/11/09 00:39:26;;;;;;;5.88;1.60;;;;;;;;;;5054529;28;20542;-57
2023/11/09 00:41:51;;;;;;;5.80;1.70;;;;;;;;;;5052169;28;20029;-58
2023/11/09 00:44:16;;;;;;;5.78;1.75;;;;;;;;;;5054607;28;20033;-58
2023/11/09 00:46:41;;;;;;;5.93;1.80;;;;;;;;;;5054063;28;20061;-57
2023/11/09 00:49:07;;;;;;;6.57;1.90;;;;;;;;;;5054152;28;20021;-58
2023/11/09 00:51:32;;;;;;;4.70;1.60;;;;;;;;;;5047178;28;20029;-58
2023/11/09 00:53:57;;;;;;;6.50;1.80;;;;;;;;;;5034131;28;20730;-58
2023/11/09 00:56:23;;;;;;;6.70;2.03;;;;;;;;;;5034062;28;20032;-57
2023/11/09 00:58:48;;;;;;;4.93;1.60;;;;;;;;;;5052748;28;20090;-58
2023/11/09 01:01:13;;;;;;;6.30;1.83;;;;;;;;;;5053286;28;20043;-58
2023/11/09 01:03:40;;;;;;;6.90;1.80;;;;;;;;;;5052604;28;20030;-59
2023/11/09 01:06:07;;;;;;;5.70;1.88;;;;;;;;;;5053541;28;20029;-58
2023/11/09 01:08:32;;;;;;;6.10;2.00;;;;;;;;;;5053555;28;20150;-58
2023/11/09 01:10:58;;;;;;;6.15;1.80;;;;;;;;;;5053693;28;20036;-56
2023/11/09 01:13:23;;;;;;;7.63;1.83;;;;;;;;;;5051169;28;20029;-59
2023/11/09 01:15:48;;;;;;;6.63;2.30;;;;;;;;;;5053246;28;20033;-58
2023/11/09 01:18:14;;;;;;;6.93;1.80;;;;;;;;;;5053563;28;20036;-58
2023/11/09 01:20:39;;;;;;;4.95;1.83;;;;;;;;;;5052339;28;20035;-59
2023/11/09 01:23:07;;;;;;;5.47;2.03;;;;;;;;;;5053288;28;20029;-57
2023/11/09 01:25:32;;;;;;;7.13;2.10;;;;;;;;;;5052102;28;20025;-56
2023/11/09 01:27:58;;;;;;;7.13;2.47;;;;;;;;;;5041718;28;20043;-59
2023/11/09 01:30:25;;;;;;;5.93;2.33;;;;;;;;;;5052505;28;20017;-58
2023/11/09 01:32:50;;;;;;;5.63;2.08;;;;;;;;;;5052643;28;20031;-57
2023/11/09 01:35:16;;;;;;;5.70;2.20;;;;;;;;;;5052856;28;20009;-58
2023/11/09 01:37:41;;;;;;;5.90;2.00;;;;;;;;;;5052934;28;20131;-57
2023/11/09 01:40:09;;;;;;;8.23;2.40;;;;;;;;;;5052679;28;20017;-58
2023/11/09 01:42:35;;;;;;;5.75;2.00;;;;;;;;;;5051678;28;20028;-58
2023/11/09 01:45:00;;;;;;;5.05;1.90;;;;;;;;;;5052460;28;20044;-58
2023/11/09 01:47:25;;;;;;;6.17;2.17;;;;;;;;;;5053014;28;20027;-57
2023/11/09 01:49:51;;;;;;;6.72;2.05;;;;;;;;;;5051463;28;20143;-57
2023/11/09 01:52:16;;;;;;;7.35;2.30;;;;;;;;;;5052373;28;20021;-56
2023/11/09 01:54:41;;;;;;;6.53;1.95;;;;;;;;;;5052499;28;20030;-58
2023/11/09 01:57:09;;;;;;;6.40;2.20;;;;;;;;;;5050373;28;20029;-60
2023/11/09 01:59:37;;;;;;;8.73;2.42;;;;;;;;;;5051813;28;20033;-58
2023/11/09 02:02:02;;;;;;;7.55;1.77;;;;;;;;;;5052156;28;20025;-57
2023/11/09 02:04:28;;;;;;;15.20;13.73;;;;;;;;;;5052399;28;20009;-58
2023/11/09 02:06:53;;;;;;;6.47;1.90;;;;;;;;;;5052373;28;20492;-59
2023/11/09 02:09:20;;;;;;;7.22;2.17;;;;;;;;;;5052060;28;20016;-57
2023/11/09 02:11:46;;;;;;;7.32;1.90;;;;;;;;;;5051744;28;20126;-57
2023/11/09 02:14:11;;;;;;;;;;;;;;;;;;5050942;28;20540;-58
2023/11/09 02:16:37;;;;;;;4.78;1.98;;;;;;;;;;5051664;28;20505;-57
2023/11/09 02:19:02;;;;;;;7.43;1.60;;;;;;;;;;5051998;28;20049;-59
2023/11/09 02:21:28;;;;;;;5.50;1.90;;;;;;;;;;5052042;28;20381;-57
2023/11/09 02:23:54;;;;;;;7.40;2.20;;;;;;;;;;5052182;28;20473;-59
2023/11/09 02:26:20;;;;;;;5.05;1.83;;;;;;;;;;5049527;28;20024;-57
2023/11/09 02:28:48;;;;;;;5.15;1.90;;;;;;;;;;5051514;28;20025;-58
2023/11/09 02:31:13;;;;;;;5.75;2.00;;;;;;;;;;5049840;28;20017;-58
2023/11/09 02:33:39;;;;;;;6.13;2.20;;;;;;;;;;5042109;28;20029;-59
2023/11/09 02:36:04;;;;;;;6.90;2.10;;;;;;;;;;5032084;28;20026;-58
2023/11/09 02:38:30;;;;;;;7.55;2.30;;;;;;;;;;5032089;28;20029;-59
2023/11/09 02:40:56;;;;;;;5.80;2.17;;;;;;;;;;5037311;28;20486;-58
2023/11/09 02:43:21;;;;;;;7.03;2.00;;;;;;;;;;5051108;28;20016;-57
2023/11/09 02:45:46;;;;;;;5.90;2.10;;;;;;;;;;5051766;28;20036;-58
2023/11/09 02:48:12;;;;;;;6.97;2.55;;;;;;;;;;5051890;28;20063;-58
2023/11/09 02:50:37;;;;;;;7.07;2.37;;;;;;;;;;5052322;28;20417;-58
2023/11/09 02:53:02;;;;;;;7.33;2.40;;;;;;;;;;5051564;28;20104;-58
2023/11/09 02:55:27;;;;;;;6.17;2.17;;;;;;;;;;5051595;28;20484;-58
2023/11/09 02:57:53;;;;;;;7.85;2.45;;;;;;;;;;5049986;28;20021;-57
2023/11/09 03:00:18;;;;;;;6.33;2.00;;;;;;;;;;5051239;28;20056;-59
2023/11/09 03:02:43;;;;;;;8.00;2.33;;;;;;;;;;5051701;28;20416;-57
2023/11/09 03:05:08;;;;;;;8.20;2.63;;;;;;;;;;5052146;28;20020;-57
2023/11/09 03:07:33;;;;;;;8.03;2.37;;;;;;;;;;5052913;28;20024;-58
2023/11/09 03:09:59;;;;;;;7.00;2.47;;;;;;;;;;5053108;28;20020;-57
2023/11/09 03:12:26;;;;;;;7.68;2.80;;;;;;;;;;5052584;28;20530;-57
2023/11/09 03:14:51;;;;;;;6.05;2.25;;;;;;;;;;5051056;28;20079;-58
2023/11/09 03:17:17;;;;;;;6.70;2.80;;;;;;;;;;5058322;28;20392;-59
2023/11/09 03:19:43;;;;;;;6.43;2.53;;;;;;;;;;5056313;28;20073;-59
2023/11/09 03:22:08;;;;;;;7.95;2.30;;;;;;;;;;5058395;28;20393;-58
2023/11/09 03:24:34;;;;;;;6.32;2.63;;;;;;;;;;5061592;28;20028;-57
2023/11/09 03:27:01;;;;;;;7.13;2.30;;;;;;;;;;5054863;28;20099;-58
2023/11/09 03:29:26;;;;;;;;;;;;;;;;;;5040549;28;20014;-57
2023/11/09 03:31:52;;;;;;;7.10;2.37;;;;;;;;;;5066101;28;19920;-57
2023/11/09 03:34:17;;;;;;;7.17;2.60;;;;;;;;;;5053026;28;20024;-59
2023/11/09 03:36:42;;;;;;;10.13;3.27;;;;;;;;;;5051607;28;20017;-58
2023/11/09 03:39:07;;;;;;;7.23;3.00;;;;;;;;;;5050379;28;20119;-57
2023/11/09 03:41:33;;;;;;;9.57;3.17;;;;;;;;;;5054013;28;20024;-58
2023/11/09 03:43:58;;;;;;;7.80;3.00;;;;;;;;;;5054619;28;20040;-58
2023/11/09 03:46:23;;;;;;;8.00;2.97;;;;;;;;;;5053657;28;20017;-60
2023/11/09 03:48:48;;;;;;;8.55;2.97;;;;;;;;;;5044925;28;20013;-59
2023/11/09 03:51:14;;;;;;;8.80;2.88;;;;;;;;;;5050684;28;20072;-59
2023/11/09 03:53:39;;;;;;;6.00;2.70;;;;;;;;;;5050013;28;20025;-56
2023/11/09 03:56:04;;;;;;;7.95;3.00;;;;;;;;;;5050643;28;20021;-59
2023/11/09 03:58:30;;;;;;;7.60;2.70;;;;;;;;;;5050566;28;20021;-57
2023/11/09 04:00:55;;;;;;;8.43;3.20;;;;;;;;;;5048263;28;20052;-58
2023/11/09 04:03:21;;;;;;;6.93;2.90;;;;;;;;;;5048575;28;20045;-59
2023/11/09 04:05:46;;;;;;;7.93;3.30;;;;;;;;;;5050800;28;20032;-58
2023/11/09 04:08:11;;;;;;;6.70;2.67;;;;;;;;;;5046925;28;20093;-59
2023/11/09 04:10:36;;;;;;;7.83;3.00;;;;;;;;;;5049405;28;20018;-58
2023/11/09 04:13:01;;;;;;;6.70;2.67;;;;;;;;;;5058407;28;20126;-60
2023/11/09 04:15:26;;;;;;;8.27;3.00;;;;;;;;;;5053600;28;20037;-59
2023/11/09 04:17:52;;;;;;;8.40;2.72;;;;;;;;;;5050689;28;20522;-58
2023/11/09 04:20:17;;;;;;;6.40;2.80;;;;;;;;;;5049569;28;20040;-57
2023/11/09 04:22:43;;;;;;;8.07;3.58;;;;;;;;;;5050543;28;20027;-58
2023/11/09 04:25:09;;;;;;;9.40;3.30;;;;;;;;;;5050157;28;20037;-58
2023/11/09 04:27:34;;;;;;;9.82;4.47;;;;;;;;;;5050503;28;20036;-57
2023/11/09 04:30:00;;;;;;;7.87;3.47;;;;;;;;;;5050889;28;20017;-58
2023/11/09 04:32:26;;;;;;;8.23;3.40;;;;;;;;;;5053483;28;20096;-59
2023/11/09 04:34:51;;;;;;;11.38;3.72;;;;;;;;;;5050523;28;20052;-59
2023/11/09 04:37:20;;;;;;;8.07;3.27;;;;;;;;;;5052133;28;20489;-59
2023/11/09 04:39:51;;;;;;;9.00;3.75;;;;;;;;;;5068014;28;20101;-59
2023/11/09 04:42:19;;;;;;;9.98;3.55;;;;;;;;;;5071836;28;20025;-57
2023/11/09 04:44:46;;;;;;;8.73;3.67;;;;;;;;;;5054754;28;20040;-58
2023/11/09 04:47:13;;;;;;;;;;;;;;;;;;5052258;28;20017;-59
2023/11/09 04:49:45;;;;;;;6.97;3.08;;;;;;;;;;5034364;28;19992;-58
2023/11/09 04:52:10;;;;;;;8.27;3.28;;;;;;;;;;5033647;28;20071;-58
2023/11/09 04:54:45;;;;;;;8.13;3.63;;;;;;;;;;5033835;28;20116;-59
2023/11/09 05:07:47;;;;;;;9.18;2.88;;;;;;;;;;5053689;28;20495;-59
2023/11/09 05:10:12;;;;;;;8.82;3.22;;;;;;;;;;5045364;28;20021;-57
2023/11/09 05:12:38;;;;;;;8.57;3.00;;;;;;;;;;5053277;28;20609;-58
2023/11/09 05:15:04;;;;;;;8.40;4.05;;;;;;;;;;5052976;28;20025;-58
2023/11/09 05:17:31;;;;;;;6.95;2.95;;;;;;;;;;5053378;28;20028;-58
2023/11/09 05:19:57;;;;;;;7.40;2.97;;;;;;;;;;5053158;28;20045;-58
2023/11/09 05:22:22;;;;;;;7.70;4.53;;;;;;;;;;5054447;28;20053;-59
2023/11/09 05:24:48;;;;;;;7.40;3.50;;;;;;;;;;5049420;28;20236;-59
2023/11/09 05:27:13;;;;;;;7.57;2.63;;;;;;;;;;5052719;28;20079;-58
2023/11/09 05:29:41;;;;;;;6.83;2.80;;;;;;;;;;5053180;28;20358;-58
2023/11/09 05:32:06;;;;;;;6.88;3.00;;;;;;;;;;5048345;28;20047;-57
2023/11/09 05:34:34;;;;;;;6.78;2.45;;;;;;;;;;5053189;28;20025;-58
2023/11/09 05:36:59;;;;;;;7.38;3.20;;;;;;;;;;5063781;28;20024;-58
2023/11/09 05:39:27;;;;;;;10.55;3.20;;;;;;;;;;5060905;28;20090;-57
2023/11/09 05:41:52;;;;;;;7.10;3.17;;;;;;;;;;5050124;28;20063;-57
2023/11/09 05:44:17;;;;;;;8.68;7.30;;;;;;;;;;5049449;28;20493;-57
2023/11/09 05:46:43;;;;;;;8.18;4.05;;;;;;;;;;5049361;28;20473;-58
2023/11/09 05:49:10;;;;;;;13.07;11.98;;;;;;;;;;5049528;28;20029;-59
2023/11/09 05:51:39;;;;;;;7.43;2.70;;;;;;;;;;5045574;28;20025;-57
2023/11/09 05:54:04;;;;;;;7.97;3.60;;;;;;;;;;5049141;28;20520;-58
2023/11/09 05:56:29;;;;;;;6.77;3.00;;;;;;;;;;5046399;28;20021;-58
2023/11/09 05:58:55;;;;;;;8.60;2.97;;;;;;;;;;5048948;28;20427;-58
2023/11/09 06:01:20;;;;;;;9.93;2.90;;;;;;;;;;5048512;28;20100;-58
2023/11/09 06:03:45;;;;;;;7.93;2.97;;;;;;;;;;5049264;28;20025;-58
2023/11/09 06:06:10;;;;;;;8.33;3.47;;;;;;;;;;5048390;28;20049;-58
2023/11/09 06:08:36;;;;;;;6.80;2.80;;;;;;;;;;5048619;28;20020;-58
2023/11/09 06:11:01;;;;;;;8.53;2.83;;;;;;;;;;5048475;28;20102;-58
2023/11/09 06:13:27;;;;;;;12.73;10.43;;;;;;;;;;5049725;28;20111;-59
2023/11/09 06:15:52;;;;;;;7.43;2.88;;;;;;;;;;5051882;28;20037;-58
2023/11/09 06:18:18;;;;;;;7.63;5.47;;;;;;;;;;5052820;28;20025;-58
2023/11/09 06:20:44;;;;;;;9.88;8.77;;;;;;;;;;5053693;28;20467;-58
2023/11/09 06:23:09;;;;;;;7.68;3.38;;;;;;;;;;5051551;28;20096;-57
2023/11/09 06:25:34;;;;;;;8.27;3.87;;;;;;;;;;5059102;28;20017;-60
2023/11/09 06:28:00;;;;;;;7.23;2.80;;;;;;;;;;5054038;28;20443;-57
2023/11/09 06:30:27;;;;;;;8.57;4.32;;;;;;;;;;5060659;28;20110;-58
2023/11/09 06:32:53;;;;;;;6.05;2.30;;;;;;;;;;5066361;28;20070;-58
2023/11/09 06:35:18;;;;;;;10.20;2.35;;;;;;;;;;5053493;28;20047;-58
2023/11/09 06:37:45;;;;;;;5.50;2.35;;;;;;;;;;5053111;28;20032;-59
2023/11/09 06:40:12;;;;;;;7.18;3.22;;;;;;;;;;5051173;28;20036;-57
2023/11/09 06:42:38;;;;;;;7.38;2.67;;;;;;;;;;5050704;28;20499;-60
2023/11/09 06:45:04;;;;;;;8.25;3.40;;;;;;;;;;5051943;28;20013;-58
2023/11/09 06:47:29;;;;;;;10.43;9.27;;;;;;;;;;5052034;28;20032;-59
2023/11/09 06:49:54;;;;;;;10.27;8.87;;;;;;;;;;5064265;28;20016;-57
2023/11/09 06:52:19;;;;;;;8.03;7.27;;;;;;;;;;5071293;28;20016;-57
2023/11/09 06:54:44;;;;;;;8.27;6.53;;;;;;;;;;5071506;28;20487;-59
2023/11/09 06:57:11;;;;;;;7.32;2.22;;;;;;;;;;5071518;28;20028;-58
2023/11/09 06:59:36;;;;;;;9.65;6.30;;;;;;;;;;5046942;28;20037;-59
2023/11/09 07:02:01;;;;;;;6.83;2.20;;;;;;;;;;5047552;28;20023;-59
2023/11/09 07:04:28;;;;;;;5.97;2.17;;;;;;;;;;5055203;28;20427;-58
2023/11/09 07:06:53;;;;;;;;;;;;;;;;;;5042009;28;20497;-59
2023/11/09 07:09:19;;;;;;;9.77;3.60;;;;;;;;;;5037043;28;19952;-59
2023/11/09 07:11:44;;;;;;;14.05;12.73;;;;;;;;;;5032252;28;20587;-59
2023/11/09 07:14:10;;;;;;;22.23;20.50;;;;;;;;;;5053089;28;20472;-59
2023/11/09 07:16:36;;;;;;;33.10;30.75;;;;;;;;;;5048524;28;20029;-57
2023/11/09 07:19:01;;;;;;;12.27;11.15;;;;;;;;;;5040670;28;20040;-58
2023/11/09 07:21:27;;;;;;;8.85;7.88;;;;;;;;;;5042044;28;20060;-57
2023/11/09 07:23:59;;;;;;;12.82;11.63;;;;;;;;;;5034838;28;20034;-59
2023/11/09 07:26:24;;;;;;;6.63;4.57;;;;;;;;;;5045664;28;20029;-58
2023/11/09 07:28:51;;;;;;;6.85;3.03;;;;;;;;;;5048404;28;20028;-58
2023/11/09 07:31:16;;;;;;;8.10;7.32;;;;;;;;;;5050294;28;20021;-58
2023/11/09 07:33:44;;;;;;;7.90;6.80;;;;;;;;;;5051044;28;20028;-60
2023/11/09 07:36:09;;;;;;;8.55;7.68;;;;;;;;;;5050792;28;20112;-58
2023/11/09 07:38:34;;;;;;;11.55;10.40;;;;;;;;;;5051014;28;20155;-59
2023/11/09 07:41:00;;;;;;;7.05;6.25;;;;;;;;;;5050486;28;20049;-59
2023/11/09 07:43:25;;;;;;;21.13;19.27;;;;;;;;;;5048850;28;20029;-58
2023/11/09 07:45:50;;;;;;;22.07;20.63;;;;;;;;;;5050634;28;20134;-60
2023/11/09 07:48:16;;;;;;;41.40;38.93;;;;;;;;;;5049787;28;20033;-57
2023/11/09 07:50:41;;;;;;;23.13;20.98;;;;;;;;;;5045104;28;20020;-59
2023/11/09 07:53:07;;;;;;;7.47;6.57;;;;;;;;;;5050754;28;20028;-59
2023/11/09 07:55:32;;;;;;;8.02;2.97;;;;;;;;;;5049223;28;20108;-58
2023/11/09 07:58:03;;;;;;;7.90;5.37;;;;;;;;;;5050747;28;20060;-59
2023/11/09 08:00:29;;;;;;;16.55;15.15;;;;;;;;;;5050532;28;20492;-58
2023/11/09 08:02:54;;;;;;;74.05;69.57;;;;;;;;;;5050837;28;20029;-58
2023/11/09 08:05:19;;;;;;;6.00;3.03;;;;;;;;;;5049558;28;20028;-58
2023/11/09 08:07:45;;;;;;;19.10;17.60;;;;;;;;;;5050746;28;20021;-58
2023/11/09 08:10:10;;;;;;;6.97;5.93;;;;;;;;;;5050383;28;20021;-58
2023/11/09 08:12:36;;;;;;;10.63;9.68;;;;;;;;;;5054839;28;20025;-58
2023/11/09 08:15:09;;;;;;;29.73;27.80;;;;;;;;;;5054240;28;20046;-57
2023/11/09 08:17:35;;;;;;;6.40;5.50;;;;;;;;;;5052624;28;20393;-59
2023/11/09 08:20:01;;;;;;;16.37;15.13;;;;;;;;;;5055506;28;20103;-57
2023/11/09 08:22:26;;;;;;;13.75;12.55;;;;;;;;;;5054865;28;20043;-58
2023/11/09 08:24:52;;;;;;;23.60;21.85;;;;;;;;;;5064849;28;20017;-58
2023/11/09 08:27:17;;;;;;;17.63;16.20;;;;;;;;;;5066038;28;20484;-59
2023/11/09 08:29:43;;;;;;;6.78;5.13;;;;;;;;;;5061693;28;20025;-58
2023/11/09 08:32:08;;;;;;;7.80;4.40;;;;;;;;;;5060735;28;20396;-60
2023/11/09 08:34:33;;;;;;;8.07;4.13;;;;;;;;;;5053868;28;20024;-58
2023/11/09 08:36:59;;;;;;;22.57;21.10;;;;;;;;;;5054344;28;20121;-57
2023/11/09 08:39:26;;;;;;;8.52;7.03;;;;;;;;;;5054378;28;20041;-58
2023/11/09 08:41:51;;;;;;;48.15;45.42;;;;;;;;;;5053952;28;20020;-58
2023/11/09 08:44:17;;;;;;;8.98;5.55;;;;;;;;;;5052750;28;20017;-59
2023/11/09 08:46:42;;;;;;;40.13;37.70;;;;;;;;;;5051374;28;20037;-60
2023/11/09 08:49:08;;;;;;;7.10;5.80;;;;;;;;;;5053989;28;20376;-58
2023/11/09 08:51:34;;;;;;;7.63;6.75;;;;;;;;;;5053434;28;20123;-58
2023/11/09 08:54:01;;;;;;;55.22;52.08;;;;;;;;;;5053620;28;20536;-58
2023/11/09 08:56:26;;;;;;;10.13;9.20;;;;;;;;;;5053965;28;20013;-57
2023/11/09 08:58:51;;;;;;;12.45;11.45;;;;;;;;;;5053674;28;20074;-59
2023/11/09 09:01:17;;;;;;;7.45;6.22;;;;;;;;;;5051032;28;20080;-57
2023/11/09 09:03:43;;;;;;;29.15;27.20;;;;;;;;;;5053417;28;20541;-58
2023/11/09 09:06:09;;;;;;;9.15;7.68;;;;;;;;;;5053645;28;20104;-59
2023/11/09 09:08:34;;;;;;;5.57;3.13;;;;;;;;;;5051852;28;20132;-58
2023/11/09 09:11:01;;;;;;;24.60;22.97;;;;;;;;;;5052977;28;20013;-59
2023/11/09 09:13:26;;;;;;;19.90;18.55;;;;;;;;;;5053146;28;20025;-58
2023/11/09 09:15:53;;;;;;;27.60;25.83;;;;;;;;;;5051416;28;20366;-58
2023/11/09 09:18:19;;;;;;;11.50;10.50;;;;;;;;;;5053655;28;20100;-58
2023/11/09 09:20:44;;;;;;;9.82;8.32;;;;;;;;;;5052986;28;20048;-58
2023/11/09 09:23:10;;;;;;;20.55;18.83;;;;;;;;;;5053581;28;20036;-59
2023/11/09 09:25:38;;;;;;;5.38;3.15;;;;;;;;;;5053066;28;20049;-58
2023/11/09 09:28:04;;;;;;;64.38;60.75;;;;;;;;;;5057957;28;20044;-58
2023/11/09 09:30:29;;;;;;;6.05;4.05;;;;;;;;;;5055294;28;20021;-59
2023/11/09 09:32:59;;;;;;;50.80;47.90;;;;;;;;;;5055841;28;20155;-58
2023/11/09 09:35:24;;;;;;;5.65;2.22;;;;;;;;;;5056234;28;20017;-59
2023/11/09 09:37:50;;;;;;;36.95;34.80;;;;;;;;;;5054175;28;20396;-58
2023/11/09 09:40:19;;;;;;;14.20;13.07;;;;;;;;;;5052675;28;20102;-58
2023/11/09 09:42:46;;;;;;;11.43;10.35;;;;;;;;;;5053161;28;20421;-60
2023/11/09 09:45:19;;;;;;;7.88;7.18;;;;;;;;;;5052819;28;20055;-58
2023/11/09 09:47:45;;;;;;;40.17;37.83;;;;;;;;;;5050533;28;20028;-61
2023/11/09 09:50:11;;;;;;;31.63;29.73;;;;;;;;;;5052285;28;20021;-59
2023/11/09 09:52:38;;;;;;;15.10;13.88;;;;;;;;;;5050569;28;20047;-59
2023/11/09 09:55:05;;;;;;;27.92;26.27;;;;;;;;;;5034400;28;20022;-58
2023/11/09 09:57:30;;;;;;;8.43;7.10;;;;;;;;;;5032558;28;20025;-57
2023/11/09 09:59:56;;;;;;;29.70;27.85;;;;;;;;;;5032697;28;20029;-58
2023/11/09 10:02:21;;;;;;;6.22;2.83;;;;;;;;;;5049787;28;20029;-58
2023/11/09 10:04:47;;;;;;;15.18;14.07;;;;;;;;;;5052656;28;20568;-58
2023/11/09 10:07:12;;;;;;;7.53;5.00;;;;;;;;;;5052421;28;20021;-59
2023/11/09 10:09:38;;;;;;;19.60;18.20;;;;;;;;;;5052247;28;20033;-58
2023/11/09 10:12:05;;;;;;;6.50;4.63;;;;;;;;;;5052052;28;20067;-60
2023/11/09 10:14:32;;;;;;;17.85;16.52;;;;;;;;;;5052297;28;20020;-58
2023/11/09 10:16:57;;;;;;;20.35;19.13;;;;;;;;;;5045705;28;20025;-60
2023/11/09 10:19:23;;;;;;;11.53;10.57;;;;;;;;;;5052195;28;20013;-59
2023/11/09 10:21:49;;;;;;;20.23;18.90;;;;;;;;;;5051734;28;20029;-58
2023/11/09 10:24:14;;;;;;;5.53;4.90;;;;;;;;;;5052453;28;20028;-58
2023/11/09 10:26:41;;;;;;;6.72;2.58;;;;;;;;;;5052244;28;20021;-59
2023/11/09 10:29:06;;;;;;;;;;;;;;;;;;5053278;28;20044;-58
2023/11/09 10:31:31;;;;;;;14.37;13.33;;;;;;;;;;5051045;28;19909;-58
2023/11/09 10:33:56;;;;;;;28.95;27.27;;;;;;;;;;5059189;28;20083;-60
2023/11/09 10:36:22;;;;;;;7.87;7.10;;;;;;;;;;5058875;28;20024;-58
2023/11/09 10:38:49;;;;;;;31.08;29.30;;;;;;;;;;5054112;28;20029;-58
2023/11/09 10:41:17;;;;;;;6.22;5.05;;;;;;;;;;5051729;28;20167;-59
2023/11/09 10:43:43;;;;;;;24.88;23.25;;;;;;;;;;5051586;28;20025;-58
2023/11/09 10:46:08;;;;;;;37.78;35.63;;;;;;;;;;5050282;28;20025;-58
2023/11/09 10:48:40;;;;;;;8.65;7.95;;;;;;;;;;5051483;28;20488;-58
2023/11/09 10:51:08;;;;;;;18.65;17.50;;;;;;;;;;5051107;28;20048;-58
2023/11/09 10:53:37;;;;;;;15.50;14.50;;;;;;;;;;5051508;28;20086;-57
2023/11/09 10:56:09;;;;;;;11.65;10.73;;;;;;;;;;5051291;28;20067;-59
2023/11/09 10:58:35;;;;;;;3.95;3.55;;;;;;;;;;5051159;28;20488;-58
2023/11/09 11:01:05;;;;;;;14.10;13.25;;;;;;;;;;5050939;28;20074;-60
2023/11/09 11:03:39;;;;;;;2.85;1.00;;;;;;;;;;5049169;28;20074;-59
2023/11/09 11:06:08;;;;;;;14.30;13.45;;;;;;;;;;5051428;28;20066;-59
2023/11/09 11:08:35;;;;;;;3.63;3.33;;;;;;;;;;5051641;28;20044;-58
2023/11/09 11:11:01;;;;;;;18.55;17.50;;;;;;;;;;5051187;28;20021;-60
2023/11/09 11:13:28;;;;;;;11.60;10.85;;;;;;;;;;5051214;28;20029;-60
2023/11/09 11:16:05;;;;;;;9.98;9.25;;;;;;;;;;5049892;28;20025;-59
2023/11/09 11:18:46;;;;;;;6.53;6.03;;;;;;;;;;5051054;28;20044;-59
2023/11/09 11:21:23;;;;;;;2.78;1.50;;;;;;;;;;5050345;28;20036;-58
2023/11/09 11:24:04;;;;;;;29.40;27.85;;;;;;;;;;5033203;28;20022;-59
2023/11/09 11:26:34;;;;;;;5.68;5.18;;;;;;;;;;5042450;28;20016;-57
2023/11/09 11:29:00;;;;;;;14.38;13.48;;;;;;;;;;5050702;28;20013;-59
2023/11/09 11:31:25;;;;;;;4.70;4.28;;;;;;;;;;5050701;28;20207;-57
2023/11/09 11:33:51;;;;;;;10.40;9.73;;;;;;;;;;5050780;28;20021;-60
2023/11/09 11:36:29;;;;;;;2.45;0.70;;;;;;;;;;5050891;28;20024;-60
2023/11/09 11:39:09;;;;;;;80.78;76.60;;;;;;;;;;5050446;28;20028;-59
2023/11/09 11:41:37;;;;;;;17.25;16.25;;;;;;;;;;5050341;28;20041;-60
2023/11/09 11:44:02;;;;;;;39.47;37.33;;;;;;;;;;5049696;28;20542;-60
2023/11/09 11:46:27;;;;;;;1.97;0.70;;;;;;;;;;5050753;28;20104;-58
2023/11/09 11:48:59;;;;;;;35.47;33.50;;;;;;;;;;5050301;28;20477;-61
2023/11/09 11:51:26;;;;;;;4.43;3.70;;;;;;;;;;5048401;28;20021;-60
2023/11/09 11:54:12;;;;;;;26.88;25.45;;;;;;;;;;5046755;28;20154;-60
2023/11/09 11:56:38;;;;;;;18.42;17.33;;;;;;;;;;5048151;28;20120;-60
2023/11/09 11:59:07;;;;;;;7.32;6.72;;;;;;;;;;5051571;28;20103;-60
2023/11/09 12:01:33;;;;;;;6.43;5.90;;;;;;;;;;5050568;28;20017;-60
2023/11/09 12:03:59;;;;;;;48.20;45.70;;;;;;;;;;5051050;28;20099;-58
2023/11/09 12:06:25;;;;;;;4.07;3.30;;;;;;;;;;5049609;28;20072;-59
2023/11/09 12:08:58;;;;;;;9.55;8.93;;;;;;;;;;5050389;28;20043;-59
2023/11/09 12:11:31;;;;;;;5.05;2.40;;;;;;;;;;5050167;28;20122;-59
2023/11/09 12:13:56;;;;;;;15.25;14.25;;;;;;;;;;5044766;28;20025;-58
2023/11/09 12:16:25;;;;;;;3.43;1.37;;;;;;;;;;5050373;28;20028;-59
2023/11/09 12:18:51;;;;;;;17.25;16.25;;;;;;;;;;5050750;28;20096;-58
2023/11/09 12:21:19;;;;;;;2.28;0.82;;;;;;;;;;5050883;28;20122;-59
2023/11/09 12:23:48;;;;;;;30.40;28.67;;;;;;;;;;5051198;28;20029;-58
2023/11/09 12:26:18;;;;;;;3.05;2.08;;;;;;;;;;5050374;28;20416;-58
2023/11/09 12:28:43;;;;;;;10.25;9.55;;;;;;;;;;5050211;28;20053;-59
2023/11/09 12:31:12;;;;;;;8.35;7.72;;;;;;;;;;5049737;28;20106;-59
2023/11/09 12:33:40;;;;;;;3.88;3.35;;;;;;;;;;5051172;28;20044;-58
2023/11/09 12:36:06;;;;;;;49.97;47.15;;;;;;;;;;5051569;28;20081;-58
2023/11/09 12:38:33;;;;;;;11.93;11.18;;;;;;;;;;5049066;28;20048;-60
2023/11/09 12:41:01;;;;;;;27.77;26.08;;;;;;;;;;5049692;28;20096;-59
2023/11/09 12:43:35;;;;;;;4.38;1.50;;;;;;;;;;5055719;28;20036;-60
2023/11/09 12:46:02;;;;;;;50.92;48.10;;;;;;;;;;5057119;28;20074;-58
2023/11/09 12:48:34;;;;;;;8.05;5.00;;;;;;;;;;5054108;28;20021;-63
2023/11/09 12:50:59;;;;;;;;;;;;;;;;;;5051833;28;20017;-60
2023/11/09 12:53:27;;;;;;;2.28;0.70;;;;;;;;;;5052630;28;19913;-58
2023/11/09 12:55:52;;;;;;;10.73;10.00;;;;;;;;;;5049184;28;20017;-60
2023/11/09 12:58:21;;;;;;;10.53;9.57;;;;;;;;;;5050256;28;20074;-57
2023/11/09 13:00:47;;;;;;;8.63;7.97;;;;;;;;;;5051280;28;20024;-58
2023/11/09 13:03:13;;;;;;;6.35;5.57;;;;;;;;;;5038477;28;20022;-58
2023/11/09 13:05:39;;;;;;;13.65;12.80;;;;;;;;;;5033831;28;20103;-59
2023/11/09 13:08:09;;;;;;;4.80;3.78;;;;;;;;;;5033911;28;20028;-58
2023/11/09 13:10:35;;;;;;;3.30;1.13;;;;;;;;;;5048026;28;20021;-58
2023/11/09 13:13:13;;;;;;;2.25;0.70;;;;;;;;;;5053596;28;20860;-59
2023/11/09 13:15:41;;;;;;;13.38;12.45;;;;;;;;;;5052930;28;20412;-60
2023/11/09 13:18:07;;;;;;;20.00;18.83;;;;;;;;;;5064273;28;20040;-60
2023/11/09 13:20:47;;;;;;;26.33;24.90;;;;;;;;;;5065957;28;20037;-63
2023/11/09 13:23:13;;;;;;;13.93;13.02;;;;;;;;;;5069078;28;20431;-59
2023/11/09 13:25:44;;;;;;;32.38;30.55;;;;;;;;;;5058222;28;20112;-58
2023/11/09 13:28:13;;;;;;;4.40;1.33;;;;;;;;;;5054112;28;20013;-58
2023/11/09 13:33:29;;;;;;;16.17;15.23;;;;;;;;;;5053474;28;20033;-59
2023/11/09 13:35:59;;;;;;;17.80;16.73;;;;;;;;;;5054080;28;20057;-59
2023/11/09 13:38:43;;;;;;;11.68;10.80;;;;;;;;;;5053657;28;20024;-59
2023/11/09 13:43:48;;;;;;;15.43;14.35;;;;;;;;;;5052311;28;20052;-59
2023/11/09 13:46:14;;;;;;;19.10;17.92;;;;;;;;;;5053465;28;20025;-59
2023/11/09 13:48:43;;;;;;;22.98;21.52;;;;;;;;;;5052907;28;20017;-60
2023/11/09 13:51:11;;;;;;;34.15;32.35;;;;;;;;;;5052863;28;20096;-59
2023/11/09 13:58:47;;;;;;;5.68;4.97;;;;;;;;;;5056067;28;20485;-58
2023/11/09 14:01:12;;;;;;;5.05;4.45;;;;;;;;;;5060790;28;20405;-60
2023/11/09 14:03:42;;;;;;;21.55;20.30;;;;;;;;;;5054013;28;20142;-58
2023/11/09 14:06:11;;;;;;;27.77;26.13;;;;;;;;;;5052860;28;20480;-59
2023/11/09 14:08:40;;;;;;;19.10;17.95;;;;;;;;;;5052578;28;20029;-59
2023/11/09 14:11:09;;;;;;;19.65;18.40;;;;;;;;;;5051093;28;20024;-58
2023/11/09 14:13:37;;;;;;;12.98;11.95;;;;;;;;;;5047794;28;20021;-59
2023/11/09 14:16:15;;;;;;;5.80;5.28;;;;;;;;;;5056579;28;20088;-56
2023/11/09 14:19:00;;;;;;;17.75;16.58;;;;;;;;;;5052222;28;20020;-60
2023/11/09 14:21:32;;;;;;;13.38;12.48;;;;;;;;;;5051484;28;20210;-60
2023/11/09 14:23:57;;;;;;;21.25;19.90;;;;;;;;;;5051524;28;20013;-59
2023/11/09 14:26:27;;;;;;;28.50;26.85;;;;;;;;;;5051917;28;20144;-59
2023/11/09 14:28:59;;;;;;;4.65;2.22;;;;;;;;;;5052086;28;20419;-59
2023/11/09 14:31:24;;;;;;;;;;;;;;;;;;5051734;28;20025;-59
2023/11/09 14:33:50;;;;;;;5.32;3.10;;;;;;;;;;5051406;28;19920;-59
2023/11/09 14:36:15;;;;;;;20.38;19.20;;;;;;;;;;5051943;28;20107;-60
2023/11/09 14:38:47;;;;;;;19.83;18.57;;;;;;;;;;5052039;28;20056;-59
2023/11/09 14:41:16;;;;;;;15.90;14.65;;;;;;;;;;5049622;28;20074;-59
2023/11/09 14:43:41;;;;;;;31.02;29.33;;;;;;;;;;5051587;28;20025;-60
2023/11/09 14:46:06;;;;;;;6.77;6.20;;;;;;;;;;5051887;28;20025;-60
2023/11/09 14:48:35;;;;;;;7.43;6.75;;;;;;;;;;5050325;28;20035;-59
2023/11/09 14:51:00;;;;;;;32.15;30.25;;;;;;;;;;5051135;28;20078;-59
2023/11/09 14:53:26;;;;;;;4.57;3.22;;;;;;;;;;5051319;28;20033;-59